<?xml version="1.0" encoding="UTF-8" standalone="no" ?>
<gpx xmlns="http://www.topografix.com/GPX/1/1" xmlns:xsi="http://www.w3.org/2001/XMLSchema-instance" xsi:schemaLocation="http://www.topografix.com/GPX/1/1 http://www.topografix.com/GPX/1/1/gpx.xsd" version="1.1" creator="VisuGPX - https://www.visugpx.com">
  <metadata>
    <name>1ere sortie test gps</name>
    <desc><![CDATA[1 ere sortie vtt avec gps en test sur poste de pilotage]]></desc>
  </metadata>
  <trk>
    <name><![CDATA[13-AVR-12 14:43:33]]></name>
    <trkseg>
      <trkpt lat="50.12975" lon="2.78267">
        <ele>210.67</ele>
        <time>2012-04-12T15:10:05Z</time>
      </trkpt>
      <trkpt lat="50.12973" lon="2.7827">
        <ele>210.67</ele>
        <time>2012-04-12T15:10:37Z</time>
      </trkpt>
      <trkpt lat="50.12977" lon="2.78256">
        <ele>210.67</ele>
        <time>2012-04-12T15:11:17Z</time>
      </trkpt>
      <trkpt lat="50.1298" lon="2.78258">
        <ele>210.67</ele>
        <time>2012-04-12T15:11:55Z</time>
      </trkpt>
      <trkpt lat="50.1298" lon="2.78258">
        <ele>210.67</ele>
        <time>2012-04-12T15:12:32Z</time>
      </trkpt>
      <trkpt lat="50.12979" lon="2.78258">
        <ele>210.67</ele>
        <time>2012-04-12T15:13:09Z</time>
      </trkpt>
      <trkpt lat="50.12979" lon="2.78259">
        <ele>211.15</ele>
        <time>2012-04-12T15:13:49Z</time>
      </trkpt>
      <trkpt lat="50.12979" lon="2.78259">
        <ele>211.15</ele>
        <time>2012-04-12T15:14:22Z</time>
      </trkpt>
      <trkpt lat="50.12979" lon="2.7826">
        <ele>211.15</ele>
        <time>2012-04-12T15:14:55Z</time>
      </trkpt>
      <trkpt lat="50.1298" lon="2.78261">
        <ele>211.15</ele>
        <time>2012-04-12T15:15:29Z</time>
      </trkpt>
      <trkpt lat="50.12979" lon="2.78262">
        <ele>211.15</ele>
        <time>2012-04-12T15:16:06Z</time>
      </trkpt>
      <trkpt lat="50.12979" lon="2.78262">
        <ele>211.15</ele>
        <time>2012-04-12T15:16:37Z</time>
      </trkpt>
      <trkpt lat="50.12979" lon="2.78262">
        <ele>211.15</ele>
        <time>2012-04-12T15:17:06Z</time>
      </trkpt>
      <trkpt lat="50.12979" lon="2.78262">
        <ele>211.15</ele>
        <time>2012-04-12T15:17:33Z</time>
      </trkpt>
      <trkpt lat="50.12979" lon="2.78263">
        <ele>211.15</ele>
        <time>2012-04-12T15:18:10Z</time>
      </trkpt>
      <trkpt lat="50.12979" lon="2.78263">
        <ele>211.15</ele>
        <time>2012-04-12T15:18:48Z</time>
      </trkpt>
      <trkpt lat="50.12979" lon="2.78263">
        <ele>211.15</ele>
        <time>2012-04-12T15:19:23Z</time>
      </trkpt>
      <trkpt lat="50.12979" lon="2.78263">
        <ele>211.15</ele>
        <time>2012-04-12T15:19:46Z</time>
      </trkpt>
      <trkpt lat="50.12953" lon="2.78273">
        <ele>196.73</ele>
        <time>2012-04-13T11:48:54Z</time>
      </trkpt>
      <trkpt lat="50.12946" lon="2.78265">
        <ele>191.44</ele>
        <time>2012-04-13T11:48:57Z</time>
      </trkpt>
      <trkpt lat="50.12942" lon="2.78259">
        <ele>187.59</ele>
        <time>2012-04-13T11:48:59Z</time>
      </trkpt>
      <trkpt lat="50.12937" lon="2.78253">
        <ele>182.79</ele>
        <time>2012-04-13T11:49:01Z</time>
      </trkpt>
      <trkpt lat="50.12935" lon="2.78251">
        <ele>180.87</ele>
        <time>2012-04-13T11:49:02Z</time>
      </trkpt>
      <trkpt lat="50.12927" lon="2.78244">
        <ele>175.1</ele>
        <time>2012-04-13T11:49:05Z</time>
      </trkpt>
      <trkpt lat="50.12923" lon="2.78237">
        <ele>171.73</ele>
        <time>2012-04-13T11:49:07Z</time>
      </trkpt>
      <trkpt lat="50.12918" lon="2.78231">
        <ele>168.37</ele>
        <time>2012-04-13T11:49:09Z</time>
      </trkpt>
      <trkpt lat="50.12914" lon="2.78227">
        <ele>165</ele>
        <time>2012-04-13T11:49:11Z</time>
      </trkpt>
      <trkpt lat="50.12907" lon="2.7822">
        <ele>160.68</ele>
        <time>2012-04-13T11:49:14Z</time>
      </trkpt>
      <trkpt lat="50.129" lon="2.78212">
        <ele>156.83</ele>
        <time>2012-04-13T11:49:17Z</time>
      </trkpt>
      <trkpt lat="50.12891" lon="2.78201">
        <ele>152.99</ele>
        <time>2012-04-13T11:49:21Z</time>
      </trkpt>
      <trkpt lat="50.12873" lon="2.78184">
        <ele>149.14</ele>
        <time>2012-04-13T11:49:27Z</time>
      </trkpt>
      <trkpt lat="50.12862" lon="2.78173">
        <ele>145.3</ele>
        <time>2012-04-13T11:49:31Z</time>
      </trkpt>
      <trkpt lat="50.12856" lon="2.78168">
        <ele>144.34</ele>
        <time>2012-04-13T11:49:33Z</time>
      </trkpt>
      <trkpt lat="50.12843" lon="2.7816">
        <ele>140.97</ele>
        <time>2012-04-13T11:49:37Z</time>
      </trkpt>
      <trkpt lat="50.12834" lon="2.78155">
        <ele>139.53</ele>
        <time>2012-04-13T11:49:40Z</time>
      </trkpt>
      <trkpt lat="50.12819" lon="2.78147">
        <ele>136.64</ele>
        <time>2012-04-13T11:49:45Z</time>
      </trkpt>
      <trkpt lat="50.12804" lon="2.78144">
        <ele>133.28</ele>
        <time>2012-04-13T11:49:52Z</time>
      </trkpt>
      <trkpt lat="50.12783" lon="2.78141">
        <ele>129.92</ele>
        <time>2012-04-13T11:50:02Z</time>
      </trkpt>
      <trkpt lat="50.12726" lon="2.78132">
        <ele>127.03</ele>
        <time>2012-04-13T11:50:16Z</time>
      </trkpt>
      <trkpt lat="50.12689" lon="2.78124">
        <ele>125.59</ele>
        <time>2012-04-13T11:50:24Z</time>
      </trkpt>
      <trkpt lat="50.12645" lon="2.78113">
        <ele>123.67</ele>
        <time>2012-04-13T11:50:33Z</time>
      </trkpt>
      <trkpt lat="50.12549" lon="2.78094">
        <ele>120.3</ele>
        <time>2012-04-13T11:50:52Z</time>
      </trkpt>
      <trkpt lat="50.12445" lon="2.78082">
        <ele>118.38</ele>
        <time>2012-04-13T11:51:11Z</time>
      </trkpt>
      <trkpt lat="50.12349" lon="2.7808">
        <ele>118.38</ele>
        <time>2012-04-13T11:51:28Z</time>
      </trkpt>
      <trkpt lat="50.12243" lon="2.78083">
        <ele>117.42</ele>
        <time>2012-04-13T11:51:46Z</time>
      </trkpt>
      <trkpt lat="50.12232" lon="2.78084">
        <ele>117.42</ele>
        <time>2012-04-13T11:51:48Z</time>
      </trkpt>
      <trkpt lat="50.122" lon="2.78089">
        <ele>117.42</ele>
        <time>2012-04-13T11:51:54Z</time>
      </trkpt>
      <trkpt lat="50.12087" lon="2.78101">
        <ele>116.94</ele>
        <time>2012-04-13T11:52:12Z</time>
      </trkpt>
      <trkpt lat="50.11968" lon="2.78125">
        <ele>116.94</ele>
        <time>2012-04-13T11:52:32Z</time>
      </trkpt>
      <trkpt lat="50.11865" lon="2.78129">
        <ele>118.86</ele>
        <time>2012-04-13T11:52:49Z</time>
      </trkpt>
      <trkpt lat="50.1177" lon="2.78144">
        <ele>120.78</ele>
        <time>2012-04-13T11:53:09Z</time>
      </trkpt>
      <trkpt lat="50.1167" lon="2.78171">
        <ele>121.26</ele>
        <time>2012-04-13T11:53:31Z</time>
      </trkpt>
      <trkpt lat="50.11597" lon="2.78203">
        <ele>121.74</ele>
        <time>2012-04-13T11:53:48Z</time>
      </trkpt>
      <trkpt lat="50.11585" lon="2.78211">
        <ele>122.22</ele>
        <time>2012-04-13T11:53:51Z</time>
      </trkpt>
      <trkpt lat="50.11574" lon="2.78216">
        <ele>122.22</ele>
        <time>2012-04-13T11:53:54Z</time>
      </trkpt>
      <trkpt lat="50.11567" lon="2.78197">
        <ele>122.71</ele>
        <time>2012-04-13T11:54:00Z</time>
      </trkpt>
      <trkpt lat="50.11572" lon="2.78188">
        <ele>122.71</ele>
        <time>2012-04-13T11:54:02Z</time>
      </trkpt>
      <trkpt lat="50.11596" lon="2.78136">
        <ele>122.71</ele>
        <time>2012-04-13T11:54:17Z</time>
      </trkpt>
      <trkpt lat="50.11613" lon="2.78095">
        <ele>122.71</ele>
        <time>2012-04-13T11:54:28Z</time>
      </trkpt>
      <trkpt lat="50.11315" lon="2.7722">
        <ele>126.55</ele>
        <time>2012-04-13T11:56:44Z</time>
      </trkpt>
      <trkpt lat="50.11308" lon="2.77202">
        <ele>129.43</ele>
        <time>2012-04-13T11:56:47Z</time>
      </trkpt>
      <trkpt lat="50.11286" lon="2.77137">
        <ele>129.43</ele>
        <time>2012-04-13T11:57:01Z</time>
      </trkpt>
      <trkpt lat="50.11263" lon="2.77076">
        <ele>128.47</ele>
        <time>2012-04-13T11:57:14Z</time>
      </trkpt>
      <trkpt lat="50.1124" lon="2.77011">
        <ele>127.99</ele>
        <time>2012-04-13T11:57:29Z</time>
      </trkpt>
      <trkpt lat="50.1124" lon="2.77012">
        <ele>127.51</ele>
        <time>2012-04-13T11:57:50Z</time>
      </trkpt>
      <trkpt lat="50.10532" lon="2.75473">
        <ele>123.67</ele>
        <time>2012-04-13T12:02:45Z</time>
      </trkpt>
      <trkpt lat="50.10519" lon="2.75462">
        <ele>126.07</ele>
        <time>2012-04-13T12:02:53Z</time>
      </trkpt>
      <trkpt lat="50.1051" lon="2.75471">
        <ele>126.07</ele>
        <time>2012-04-13T12:03:00Z</time>
      </trkpt>
      <trkpt lat="50.10505" lon="2.75477">
        <ele>125.11</ele>
        <time>2012-04-13T12:03:04Z</time>
      </trkpt>
      <trkpt lat="50.10502" lon="2.75477">
        <ele>124.63</ele>
        <time>2012-04-13T12:03:06Z</time>
      </trkpt>
      <trkpt lat="50.10474" lon="2.7551">
        <ele>124.63</ele>
        <time>2012-04-13T12:03:17Z</time>
      </trkpt>
      <trkpt lat="50.1047" lon="2.75513">
        <ele>124.63</ele>
        <time>2012-04-13T12:03:18Z</time>
      </trkpt>
      <trkpt lat="50.10425" lon="2.75533">
        <ele>123.67</ele>
        <time>2012-04-13T12:03:26Z</time>
      </trkpt>
      <trkpt lat="50.10391" lon="2.75565">
        <ele>121.26</ele>
        <time>2012-04-13T12:03:31Z</time>
      </trkpt>
      <trkpt lat="50.10368" lon="2.75596">
        <ele>116.94</ele>
        <time>2012-04-13T12:03:35Z</time>
      </trkpt>
      <trkpt lat="50.10293" lon="2.75647">
        <ele>114.53</ele>
        <time>2012-04-13T12:03:47Z</time>
      </trkpt>
      <trkpt lat="50.10283" lon="2.75653">
        <ele>114.05</ele>
        <time>2012-04-13T12:03:49Z</time>
      </trkpt>
      <trkpt lat="50.1026" lon="2.75642">
        <ele>113.57</ele>
        <time>2012-04-13T12:03:54Z</time>
      </trkpt>
      <trkpt lat="50.10234" lon="2.75576">
        <ele>112.61</ele>
        <time>2012-04-13T12:04:08Z</time>
      </trkpt>
      <trkpt lat="50.1015" lon="2.75408">
        <ele>112.61</ele>
        <time>2012-04-13T12:04:58Z</time>
      </trkpt>
      <trkpt lat="50.10142" lon="2.75394">
        <ele>112.61</ele>
        <time>2012-04-13T12:05:04Z</time>
      </trkpt>
      <trkpt lat="50.10137" lon="2.75388">
        <ele>112.61</ele>
        <time>2012-04-13T12:05:06Z</time>
      </trkpt>
      <trkpt lat="50.1013" lon="2.7538">
        <ele>112.61</ele>
        <time>2012-04-13T12:05:08Z</time>
      </trkpt>
      <trkpt lat="50.10106" lon="2.75372">
        <ele>112.61</ele>
        <time>2012-04-13T12:05:13Z</time>
      </trkpt>
      <trkpt lat="50.10084" lon="2.75363">
        <ele>112.13</ele>
        <time>2012-04-13T12:05:17Z</time>
      </trkpt>
      <trkpt lat="50.10071" lon="2.75361">
        <ele>111.65</ele>
        <time>2012-04-13T12:05:19Z</time>
      </trkpt>
      <trkpt lat="50.1004" lon="2.75354">
        <ele>109.25</ele>
        <time>2012-04-13T12:05:24Z</time>
      </trkpt>
      <trkpt lat="50.10021" lon="2.75347">
        <ele>106.36</ele>
        <time>2012-04-13T12:05:27Z</time>
      </trkpt>
      <trkpt lat="50.09999" lon="2.75352">
        <ele>103</ele>
        <time>2012-04-13T12:05:30Z</time>
      </trkpt>
      <trkpt lat="50.09983" lon="2.75363">
        <ele>101.08</ele>
        <time>2012-04-13T12:05:32Z</time>
      </trkpt>
      <trkpt lat="50.09928" lon="2.75373">
        <ele>96.27</ele>
        <time>2012-04-13T12:05:37Z</time>
      </trkpt>
      <trkpt lat="50.09892" lon="2.75362">
        <ele>91.94</ele>
        <time>2012-04-13T12:05:40Z</time>
      </trkpt>
      <trkpt lat="50.0988" lon="2.7536">
        <ele>90.5</ele>
        <time>2012-04-13T12:05:41Z</time>
      </trkpt>
      <trkpt lat="50.09812" lon="2.75391">
        <ele>86.66</ele>
        <time>2012-04-13T12:05:48Z</time>
      </trkpt>
      <trkpt lat="50.09753" lon="2.75437">
        <ele>87.14</ele>
        <time>2012-04-13T12:05:58Z</time>
      </trkpt>
      <trkpt lat="50.09747" lon="2.75447">
        <ele>86.66</ele>
        <time>2012-04-13T12:06:02Z</time>
      </trkpt>
      <trkpt lat="50.09732" lon="2.75514">
        <ele>85.69</ele>
        <time>2012-04-13T12:06:15Z</time>
      </trkpt>
      <trkpt lat="50.09731" lon="2.75515">
        <ele>85.69</ele>
        <time>2012-04-13T12:06:29Z</time>
      </trkpt>
      <trkpt lat="50.09731" lon="2.75515">
        <ele>85.69</ele>
        <time>2012-04-13T12:06:54Z</time>
      </trkpt>
      <trkpt lat="50.09731" lon="2.75515">
        <ele>85.69</ele>
        <time>2012-04-13T12:06:55Z</time>
      </trkpt>
      <trkpt lat="50.0972" lon="2.75556">
        <ele>85.69</ele>
        <time>2012-04-13T12:07:08Z</time>
      </trkpt>
      <trkpt lat="50.0971" lon="2.75584">
        <ele>85.69</ele>
        <time>2012-04-13T12:07:17Z</time>
      </trkpt>
      <trkpt lat="50.09691" lon="2.75653">
        <ele>86.66</ele>
        <time>2012-04-13T12:07:31Z</time>
      </trkpt>
      <trkpt lat="50.0968" lon="2.75746">
        <ele>87.62</ele>
        <time>2012-04-13T12:07:47Z</time>
      </trkpt>
      <trkpt lat="50.09654" lon="2.75851">
        <ele>90.02</ele>
        <time>2012-04-13T12:08:06Z</time>
      </trkpt>
      <trkpt lat="50.09622" lon="2.7591">
        <ele>91.94</ele>
        <time>2012-04-13T12:08:19Z</time>
      </trkpt>
      <trkpt lat="50.09597" lon="2.75946">
        <ele>94.83</ele>
        <time>2012-04-13T12:08:33Z</time>
      </trkpt>
      <trkpt lat="50.09585" lon="2.75964">
        <ele>95.79</ele>
        <time>2012-04-13T12:08:44Z</time>
      </trkpt>
      <trkpt lat="50.0955" lon="2.76017">
        <ele>96.27</ele>
        <time>2012-04-13T12:08:59Z</time>
      </trkpt>
      <trkpt lat="50.09488" lon="2.76102">
        <ele>96.27</ele>
        <time>2012-04-13T12:09:18Z</time>
      </trkpt>
      <trkpt lat="50.0944" lon="2.76189">
        <ele>96.27</ele>
        <time>2012-04-13T12:09:34Z</time>
      </trkpt>
      <trkpt lat="50.09377" lon="2.76297">
        <ele>94.83</ele>
        <time>2012-04-13T12:09:52Z</time>
      </trkpt>
      <trkpt lat="50.09334" lon="2.76383">
        <ele>93.39</ele>
        <time>2012-04-13T12:10:03Z</time>
      </trkpt>
      <trkpt lat="50.09319" lon="2.76425">
        <ele>91.46</ele>
        <time>2012-04-13T12:10:07Z</time>
      </trkpt>
      <trkpt lat="50.09311" lon="2.76444">
        <ele>90.02</ele>
        <time>2012-04-13T12:10:09Z</time>
      </trkpt>
      <trkpt lat="50.09284" lon="2.76478">
        <ele>86.18</ele>
        <time>2012-04-13T12:10:14Z</time>
      </trkpt>
      <trkpt lat="50.09279" lon="2.76483">
        <ele>85.69</ele>
        <time>2012-04-13T12:10:15Z</time>
      </trkpt>
      <trkpt lat="50.0923" lon="2.76539">
        <ele>86.18</ele>
        <time>2012-04-13T12:10:28Z</time>
      </trkpt>
      <trkpt lat="50.09183" lon="2.76564">
        <ele>87.62</ele>
        <time>2012-04-13T12:10:41Z</time>
      </trkpt>
      <trkpt lat="50.09157" lon="2.76569">
        <ele>91.46</ele>
        <time>2012-04-13T12:10:49Z</time>
      </trkpt>
      <trkpt lat="50.09143" lon="2.76569">
        <ele>94.35</ele>
        <time>2012-04-13T12:10:53Z</time>
      </trkpt>
      <trkpt lat="50.09094" lon="2.76581">
        <ele>94.83</ele>
        <time>2012-04-13T12:11:08Z</time>
      </trkpt>
      <trkpt lat="50.09068" lon="2.76608">
        <ele>96.27</ele>
        <time>2012-04-13T12:11:18Z</time>
      </trkpt>
      <trkpt lat="50.09055" lon="2.76638">
        <ele>99.63</ele>
        <time>2012-04-13T12:11:27Z</time>
      </trkpt>
      <trkpt lat="50.09053" lon="2.76646">
        <ele>102.04</ele>
        <time>2012-04-13T12:11:31Z</time>
      </trkpt>
      <trkpt lat="50.09041" lon="2.76682">
        <ele>102.52</ele>
        <time>2012-04-13T12:11:42Z</time>
      </trkpt>
      <trkpt lat="50.09028" lon="2.76711">
        <ele>103</ele>
        <time>2012-04-13T12:11:54Z</time>
      </trkpt>
      <trkpt lat="50.09009" lon="2.76767">
        <ele>104.44</ele>
        <time>2012-04-13T12:12:10Z</time>
      </trkpt>
      <trkpt lat="50.08992" lon="2.76831">
        <ele>104.44</ele>
        <time>2012-04-13T12:12:24Z</time>
      </trkpt>
      <trkpt lat="50.0899" lon="2.76866">
        <ele>103.48</ele>
        <time>2012-04-13T12:12:31Z</time>
      </trkpt>
      <trkpt lat="50.08999" lon="2.76889">
        <ele>102.52</ele>
        <time>2012-04-13T12:12:35Z</time>
      </trkpt>
      <trkpt lat="50.0904" lon="2.76932">
        <ele>102.04</ele>
        <time>2012-04-13T12:12:50Z</time>
      </trkpt>
      <trkpt lat="50.09075" lon="2.76971">
        <ele>102.52</ele>
        <time>2012-04-13T12:13:03Z</time>
      </trkpt>
      <trkpt lat="50.09068" lon="2.77013">
        <ele>103.48</ele>
        <time>2012-04-13T12:13:12Z</time>
      </trkpt>
      <trkpt lat="50.09057" lon="2.77086">
        <ele>105.4</ele>
        <time>2012-04-13T12:13:27Z</time>
      </trkpt>
      <trkpt lat="50.09057" lon="2.77122">
        <ele>108.29</ele>
        <time>2012-04-13T12:13:36Z</time>
      </trkpt>
      <trkpt lat="50.09055" lon="2.77139">
        <ele>111.65</ele>
        <time>2012-04-13T12:13:40Z</time>
      </trkpt>
      <trkpt lat="50.09049" lon="2.77223">
        <ele>113.57</ele>
        <time>2012-04-13T12:13:56Z</time>
      </trkpt>
      <trkpt lat="50.09041" lon="2.77322">
        <ele>113.57</ele>
        <time>2012-04-13T12:14:14Z</time>
      </trkpt>
      <trkpt lat="50.09056" lon="2.77374">
        <ele>114.05</ele>
        <time>2012-04-13T12:14:25Z</time>
      </trkpt>
      <trkpt lat="50.09097" lon="2.7743">
        <ele>115.01</ele>
        <time>2012-04-13T12:14:40Z</time>
      </trkpt>
      <trkpt lat="50.09144" lon="2.77493">
        <ele>115.98</ele>
        <time>2012-04-13T12:14:58Z</time>
      </trkpt>
      <trkpt lat="50.09197" lon="2.77565">
        <ele>118.38</ele>
        <time>2012-04-13T12:15:18Z</time>
      </trkpt>
      <trkpt lat="50.09247" lon="2.77632">
        <ele>119.82</ele>
        <time>2012-04-13T12:15:36Z</time>
      </trkpt>
      <trkpt lat="50.09297" lon="2.777">
        <ele>120.78</ele>
        <time>2012-04-13T12:15:54Z</time>
      </trkpt>
      <trkpt lat="50.09345" lon="2.77764">
        <ele>121.74</ele>
        <time>2012-04-13T12:16:12Z</time>
      </trkpt>
      <trkpt lat="50.09377" lon="2.77812">
        <ele>121.74</ele>
        <time>2012-04-13T12:16:25Z</time>
      </trkpt>
      <trkpt lat="50.09368" lon="2.77831">
        <ele>122.22</ele>
        <time>2012-04-13T12:16:30Z</time>
      </trkpt>
      <trkpt lat="50.09316" lon="2.77905">
        <ele>124.15</ele>
        <time>2012-04-13T12:16:50Z</time>
      </trkpt>
      <trkpt lat="50.0927" lon="2.77971">
        <ele>125.59</ele>
        <time>2012-04-13T12:17:08Z</time>
      </trkpt>
      <trkpt lat="50.0924" lon="2.78024">
        <ele>125.59</ele>
        <time>2012-04-13T12:17:21Z</time>
      </trkpt>
      <trkpt lat="50.09241" lon="2.78036">
        <ele>125.59</ele>
        <time>2012-04-13T12:17:23Z</time>
      </trkpt>
      <trkpt lat="50.09251" lon="2.78155">
        <ele>125.59</ele>
        <time>2012-04-13T12:17:42Z</time>
      </trkpt>
      <trkpt lat="50.09252" lon="2.78168">
        <ele>125.59</ele>
        <time>2012-04-13T12:17:44Z</time>
      </trkpt>
      <trkpt lat="50.0926" lon="2.7824">
        <ele>125.59</ele>
        <time>2012-04-13T12:17:58Z</time>
      </trkpt>
      <trkpt lat="50.09263" lon="2.78248">
        <ele>125.59</ele>
        <time>2012-04-13T12:18:07Z</time>
      </trkpt>
      <trkpt lat="50.09262" lon="2.78249">
        <ele>125.59</ele>
        <time>2012-04-13T12:18:20Z</time>
      </trkpt>
      <trkpt lat="50.09262" lon="2.78249">
        <ele>125.59</ele>
        <time>2012-04-13T12:19:05Z</time>
      </trkpt>
      <trkpt lat="50.09262" lon="2.78249">
        <ele>125.59</ele>
        <time>2012-04-13T12:19:06Z</time>
      </trkpt>
      <trkpt lat="50.09262" lon="2.7825">
        <ele>125.59</ele>
        <time>2012-04-13T12:19:08Z</time>
      </trkpt>
      <trkpt lat="50.09267" lon="2.78282">
        <ele>125.59</ele>
        <time>2012-04-13T12:19:18Z</time>
      </trkpt>
      <trkpt lat="50.09269" lon="2.78307">
        <ele>124.63</ele>
        <time>2012-04-13T12:19:25Z</time>
      </trkpt>
      <trkpt lat="50.09263" lon="2.78416">
        <ele>122.22</ele>
        <time>2012-04-13T12:19:42Z</time>
      </trkpt>
      <trkpt lat="50.09256" lon="2.78545">
        <ele>119.34</ele>
        <time>2012-04-13T12:20:00Z</time>
      </trkpt>
      <trkpt lat="50.09255" lon="2.78559">
        <ele>119.34</ele>
        <time>2012-04-13T12:20:02Z</time>
      </trkpt>
      <trkpt lat="50.09254" lon="2.78603">
        <ele>118.38</ele>
        <time>2012-04-13T12:20:09Z</time>
      </trkpt>
      <trkpt lat="50.09254" lon="2.78636">
        <ele>117.9</ele>
        <time>2012-04-13T12:20:14Z</time>
      </trkpt>
      <trkpt lat="50.09253" lon="2.78668">
        <ele>117.42</ele>
        <time>2012-04-13T12:20:19Z</time>
      </trkpt>
      <trkpt lat="50.09235" lon="2.78748">
        <ele>117.42</ele>
        <time>2012-04-13T12:20:33Z</time>
      </trkpt>
      <trkpt lat="50.09222" lon="2.78855">
        <ele>118.86</ele>
        <time>2012-04-13T12:20:53Z</time>
      </trkpt>
      <trkpt lat="50.09229" lon="2.78911">
        <ele>120.78</ele>
        <time>2012-04-13T12:21:04Z</time>
      </trkpt>
      <trkpt lat="50.09245" lon="2.78992">
        <ele>122.22</ele>
        <time>2012-04-13T12:21:19Z</time>
      </trkpt>
      <trkpt lat="50.09261" lon="2.79079">
        <ele>124.15</ele>
        <time>2012-04-13T12:21:36Z</time>
      </trkpt>
      <trkpt lat="50.09269" lon="2.79127">
        <ele>124.63</ele>
        <time>2012-04-13T12:21:48Z</time>
      </trkpt>
      <trkpt lat="50.09269" lon="2.79206">
        <ele>125.11</ele>
        <time>2012-04-13T12:22:02Z</time>
      </trkpt>
      <trkpt lat="50.09262" lon="2.79287">
        <ele>125.11</ele>
        <time>2012-04-13T12:22:15Z</time>
      </trkpt>
      <trkpt lat="50.09263" lon="2.79371">
        <ele>125.11</ele>
        <time>2012-04-13T12:22:29Z</time>
      </trkpt>
      <trkpt lat="50.09269" lon="2.79419">
        <ele>125.11</ele>
        <time>2012-04-13T12:22:40Z</time>
      </trkpt>
      <trkpt lat="50.09271" lon="2.79434">
        <ele>125.11</ele>
        <time>2012-04-13T12:22:46Z</time>
      </trkpt>
      <trkpt lat="50.09291" lon="2.79522">
        <ele>124.15</ele>
        <time>2012-04-13T12:23:03Z</time>
      </trkpt>
      <trkpt lat="50.09314" lon="2.79588">
        <ele>123.67</ele>
        <time>2012-04-13T12:23:16Z</time>
      </trkpt>
      <trkpt lat="50.09337" lon="2.79649">
        <ele>123.67</ele>
        <time>2012-04-13T12:23:27Z</time>
      </trkpt>
      <trkpt lat="50.09381" lon="2.79776">
        <ele>123.19</ele>
        <time>2012-04-13T12:23:48Z</time>
      </trkpt>
      <trkpt lat="50.09405" lon="2.7982">
        <ele>122.71</ele>
        <time>2012-04-13T12:23:56Z</time>
      </trkpt>
      <trkpt lat="50.09444" lon="2.79873">
        <ele>121.74</ele>
        <time>2012-04-13T12:24:07Z</time>
      </trkpt>
      <trkpt lat="50.09454" lon="2.79898">
        <ele>121.74</ele>
        <time>2012-04-13T12:24:11Z</time>
      </trkpt>
      <trkpt lat="50.09475" lon="2.80023">
        <ele>121.74</ele>
        <time>2012-04-13T12:24:30Z</time>
      </trkpt>
      <trkpt lat="50.09478" lon="2.80043">
        <ele>121.74</ele>
        <time>2012-04-13T12:24:33Z</time>
      </trkpt>
      <trkpt lat="50.09492" lon="2.80185">
        <ele>121.74</ele>
        <time>2012-04-13T12:24:54Z</time>
      </trkpt>
      <trkpt lat="50.09502" lon="2.80216">
        <ele>122.71</ele>
        <time>2012-04-13T12:24:59Z</time>
      </trkpt>
      <trkpt lat="50.09537" lon="2.80258">
        <ele>122.71</ele>
        <time>2012-04-13T12:25:12Z</time>
      </trkpt>
      <trkpt lat="50.09555" lon="2.80268">
        <ele>122.71</ele>
        <time>2012-04-13T12:25:23Z</time>
      </trkpt>
      <trkpt lat="50.09556" lon="2.80268">
        <ele>123.67</ele>
        <time>2012-04-13T12:25:48Z</time>
      </trkpt>
      <trkpt lat="50.09591" lon="2.80269">
        <ele>123.67</ele>
        <time>2012-04-13T12:26:00Z</time>
      </trkpt>
      <trkpt lat="50.09641" lon="2.80267">
        <ele>124.63</ele>
        <time>2012-04-13T12:26:15Z</time>
      </trkpt>
      <trkpt lat="50.09683" lon="2.80284">
        <ele>125.11</ele>
        <time>2012-04-13T12:26:30Z</time>
      </trkpt>
      <trkpt lat="50.09714" lon="2.8031">
        <ele>125.59</ele>
        <time>2012-04-13T12:26:40Z</time>
      </trkpt>
      <trkpt lat="50.09733" lon="2.80324">
        <ele>126.07</ele>
        <time>2012-04-13T12:26:45Z</time>
      </trkpt>
      <trkpt lat="50.09746" lon="2.80329">
        <ele>126.07</ele>
        <time>2012-04-13T12:26:48Z</time>
      </trkpt>
      <trkpt lat="50.09763" lon="2.80333">
        <ele>126.55</ele>
        <time>2012-04-13T12:26:52Z</time>
      </trkpt>
      <trkpt lat="50.09828" lon="2.80322">
        <ele>126.55</ele>
        <time>2012-04-13T12:27:05Z</time>
      </trkpt>
      <trkpt lat="50.09884" lon="2.80307">
        <ele>126.55</ele>
        <time>2012-04-13T12:27:16Z</time>
      </trkpt>
      <trkpt lat="50.09905" lon="2.80313">
        <ele>126.55</ele>
        <time>2012-04-13T12:27:20Z</time>
      </trkpt>
      <trkpt lat="50.09987" lon="2.8038">
        <ele>127.51</ele>
        <time>2012-04-13T12:27:38Z</time>
      </trkpt>
      <trkpt lat="50.10066" lon="2.80437">
        <ele>129.92</ele>
        <time>2012-04-13T12:27:55Z</time>
      </trkpt>
      <trkpt lat="50.10125" lon="2.80468">
        <ele>130.88</ele>
        <time>2012-04-13T12:28:07Z</time>
      </trkpt>
      <trkpt lat="50.10147" lon="2.80482">
        <ele>130.88</ele>
        <time>2012-04-13T12:28:11Z</time>
      </trkpt>
      <trkpt lat="50.10189" lon="2.80554">
        <ele>129.43</ele>
        <time>2012-04-13T12:28:22Z</time>
      </trkpt>
      <trkpt lat="50.10218" lon="2.80633">
        <ele>128.47</ele>
        <time>2012-04-13T12:28:32Z</time>
      </trkpt>
      <trkpt lat="50.1024" lon="2.80641">
        <ele>127.51</ele>
        <time>2012-04-13T12:28:37Z</time>
      </trkpt>
      <trkpt lat="50.10271" lon="2.80596">
        <ele>127.51</ele>
        <time>2012-04-13T12:28:50Z</time>
      </trkpt>
      <trkpt lat="50.10283" lon="2.80571">
        <ele>127.51</ele>
        <time>2012-04-13T12:28:56Z</time>
      </trkpt>
      <trkpt lat="50.1028" lon="2.8054">
        <ele>127.51</ele>
        <time>2012-04-13T12:29:01Z</time>
      </trkpt>
      <trkpt lat="50.10255" lon="2.80494">
        <ele>128.95</ele>
        <time>2012-04-13T12:29:10Z</time>
      </trkpt>
      <trkpt lat="50.10236" lon="2.80458">
        <ele>128.95</ele>
        <time>2012-04-13T12:29:16Z</time>
      </trkpt>
      <trkpt lat="50.10227" lon="2.8037">
        <ele>129.92</ele>
        <time>2012-04-13T12:29:28Z</time>
      </trkpt>
      <trkpt lat="50.10228" lon="2.8033">
        <ele>129.92</ele>
        <time>2012-04-13T12:29:33Z</time>
      </trkpt>
      <trkpt lat="50.10233" lon="2.80152">
        <ele>128.95</ele>
        <time>2012-04-13T12:29:50Z</time>
      </trkpt>
      <trkpt lat="50.10243" lon="2.79948">
        <ele>127.03</ele>
        <time>2012-04-13T12:30:06Z</time>
      </trkpt>
      <trkpt lat="50.10239" lon="2.79744">
        <ele>124.63</ele>
        <time>2012-04-13T12:30:21Z</time>
      </trkpt>
      <trkpt lat="50.10233" lon="2.79536">
        <ele>123.67</ele>
        <time>2012-04-13T12:30:39Z</time>
      </trkpt>
      <trkpt lat="50.1023" lon="2.79409">
        <ele>123.19</ele>
        <time>2012-04-13T12:30:54Z</time>
      </trkpt>
      <trkpt lat="50.10228" lon="2.7927">
        <ele>123.19</ele>
        <time>2012-04-13T12:31:14Z</time>
      </trkpt>
      <trkpt lat="50.1023" lon="2.79242">
        <ele>123.19</ele>
        <time>2012-04-13T12:31:18Z</time>
      </trkpt>
      <trkpt lat="50.1025" lon="2.79219">
        <ele>123.19</ele>
        <time>2012-04-13T12:31:24Z</time>
      </trkpt>
      <trkpt lat="50.10347" lon="2.7921">
        <ele>122.71</ele>
        <time>2012-04-13T12:31:43Z</time>
      </trkpt>
      <trkpt lat="50.10367" lon="2.79208">
        <ele>122.71</ele>
        <time>2012-04-13T12:31:47Z</time>
      </trkpt>
      <trkpt lat="50.10436" lon="2.792">
        <ele>123.67</ele>
        <time>2012-04-13T12:32:01Z</time>
      </trkpt>
      <trkpt lat="50.10447" lon="2.792">
        <ele>123.67</ele>
        <time>2012-04-13T12:32:03Z</time>
      </trkpt>
      <trkpt lat="50.10457" lon="2.792">
        <ele>124.15</ele>
        <time>2012-04-13T12:32:05Z</time>
      </trkpt>
      <trkpt lat="50.10476" lon="2.79193">
        <ele>124.15</ele>
        <time>2012-04-13T12:32:09Z</time>
      </trkpt>
      <trkpt lat="50.1054" lon="2.79123">
        <ele>125.59</ele>
        <time>2012-04-13T12:32:25Z</time>
      </trkpt>
      <trkpt lat="50.10608" lon="2.79047">
        <ele>126.55</ele>
        <time>2012-04-13T12:32:43Z</time>
      </trkpt>
      <trkpt lat="50.10653" lon="2.78995">
        <ele>126.55</ele>
        <time>2012-04-13T12:32:55Z</time>
      </trkpt>
      <trkpt lat="50.10711" lon="2.78908">
        <ele>126.55</ele>
        <time>2012-04-13T12:33:12Z</time>
      </trkpt>
      <trkpt lat="50.10779" lon="2.78868">
        <ele>126.55</ele>
        <time>2012-04-13T12:33:28Z</time>
      </trkpt>
      <trkpt lat="50.10861" lon="2.78847">
        <ele>126.55</ele>
        <time>2012-04-13T12:33:45Z</time>
      </trkpt>
      <trkpt lat="50.10897" lon="2.78849">
        <ele>126.55</ele>
        <time>2012-04-13T12:33:52Z</time>
      </trkpt>
      <trkpt lat="50.10907" lon="2.7885">
        <ele>126.55</ele>
        <time>2012-04-13T12:33:54Z</time>
      </trkpt>
      <trkpt lat="50.10917" lon="2.78848">
        <ele>126.55</ele>
        <time>2012-04-13T12:33:56Z</time>
      </trkpt>
      <trkpt lat="50.10955" lon="2.78809">
        <ele>126.55</ele>
        <time>2012-04-13T12:34:05Z</time>
      </trkpt>
      <trkpt lat="50.10963" lon="2.78778">
        <ele>126.55</ele>
        <time>2012-04-13T12:34:09Z</time>
      </trkpt>
      <trkpt lat="50.1099" lon="2.7875">
        <ele>126.55</ele>
        <time>2012-04-13T12:34:16Z</time>
      </trkpt>
      <trkpt lat="50.11015" lon="2.78748">
        <ele>125.59</ele>
        <time>2012-04-13T12:34:21Z</time>
      </trkpt>
      <trkpt lat="50.11033" lon="2.78705">
        <ele>125.59</ele>
        <time>2012-04-13T12:34:28Z</time>
      </trkpt>
      <trkpt lat="50.11035" lon="2.78522">
        <ele>125.59</ele>
        <time>2012-04-13T12:34:50Z</time>
      </trkpt>
      <trkpt lat="50.11039" lon="2.78468">
        <ele>125.59</ele>
        <time>2012-04-13T12:34:57Z</time>
      </trkpt>
      <trkpt lat="50.1105" lon="2.78445">
        <ele>125.59</ele>
        <time>2012-04-13T12:35:01Z</time>
      </trkpt>
      <trkpt lat="50.11088" lon="2.78421">
        <ele>125.11</ele>
        <time>2012-04-13T12:35:09Z</time>
      </trkpt>
      <trkpt lat="50.11189" lon="2.7836">
        <ele>125.11</ele>
        <time>2012-04-13T12:35:30Z</time>
      </trkpt>
      <trkpt lat="50.11275" lon="2.78319">
        <ele>126.55</ele>
        <time>2012-04-13T12:35:48Z</time>
      </trkpt>
      <trkpt lat="50.1134" lon="2.78304">
        <ele>127.99</ele>
        <time>2012-04-13T12:36:03Z</time>
      </trkpt>
      <trkpt lat="50.11351" lon="2.78302">
        <ele>127.99</ele>
        <time>2012-04-13T12:36:07Z</time>
      </trkpt>
      <trkpt lat="50.11364" lon="2.78303">
        <ele>128.47</ele>
        <time>2012-04-13T12:36:13Z</time>
      </trkpt>
      <trkpt lat="50.11374" lon="2.78302">
        <ele>128.47</ele>
        <time>2012-04-13T12:36:19Z</time>
      </trkpt>
      <trkpt lat="50.11392" lon="2.78296">
        <ele>128.47</ele>
        <time>2012-04-13T12:36:29Z</time>
      </trkpt>
      <trkpt lat="50.11435" lon="2.78287">
        <ele>128.47</ele>
        <time>2012-04-13T12:36:41Z</time>
      </trkpt>
      <trkpt lat="50.1144" lon="2.78285">
        <ele>128.47</ele>
        <time>2012-04-13T12:36:42Z</time>
      </trkpt>
      <trkpt lat="50.11483" lon="2.78269">
        <ele>127.51</ele>
        <time>2012-04-13T12:36:51Z</time>
      </trkpt>
      <trkpt lat="50.11517" lon="2.78254">
        <ele>127.03</ele>
        <time>2012-04-13T12:36:58Z</time>
      </trkpt>
      <trkpt lat="50.11602" lon="2.78205">
        <ele>125.11</ele>
        <time>2012-04-13T12:37:16Z</time>
      </trkpt>
      <trkpt lat="50.11683" lon="2.7817">
        <ele>123.67</ele>
        <time>2012-04-13T12:37:32Z</time>
      </trkpt>
      <trkpt lat="50.11694" lon="2.78167">
        <ele>123.67</ele>
        <time>2012-04-13T12:37:34Z</time>
      </trkpt>
      <trkpt lat="50.11795" lon="2.78142">
        <ele>122.71</ele>
        <time>2012-04-13T12:37:53Z</time>
      </trkpt>
      <trkpt lat="50.11905" lon="2.78129">
        <ele>120.78</ele>
        <time>2012-04-13T12:38:12Z</time>
      </trkpt>
      <trkpt lat="50.12001" lon="2.78127">
        <ele>119.34</ele>
        <time>2012-04-13T12:38:29Z</time>
      </trkpt>
      <trkpt lat="50.12102" lon="2.781">
        <ele>117.9</ele>
        <time>2012-04-13T12:38:47Z</time>
      </trkpt>
      <trkpt lat="50.12201" lon="2.78088">
        <ele>117.9</ele>
        <time>2012-04-13T12:39:05Z</time>
      </trkpt>
      <trkpt lat="50.12209" lon="2.78088">
        <ele>117.9</ele>
        <time>2012-04-13T12:39:07Z</time>
      </trkpt>
      <trkpt lat="50.12241" lon="2.78086">
        <ele>117.9</ele>
        <time>2012-04-13T12:39:14Z</time>
      </trkpt>
      <trkpt lat="50.12276" lon="2.78083">
        <ele>117.9</ele>
        <time>2012-04-13T12:39:21Z</time>
      </trkpt>
      <trkpt lat="50.12314" lon="2.78082">
        <ele>117.9</ele>
        <time>2012-04-13T12:39:29Z</time>
      </trkpt>
      <trkpt lat="50.12389" lon="2.78083">
        <ele>117.42</ele>
        <time>2012-04-13T12:39:46Z</time>
      </trkpt>
      <trkpt lat="50.12447" lon="2.78084">
        <ele>117.42</ele>
        <time>2012-04-13T12:39:59Z</time>
      </trkpt>
      <trkpt lat="50.12469" lon="2.7809">
        <ele>117.42</ele>
        <time>2012-04-13T12:40:04Z</time>
      </trkpt>
      <trkpt lat="50.12502" lon="2.78095">
        <ele>117.42</ele>
        <time>2012-04-13T12:40:11Z</time>
      </trkpt>
      <trkpt lat="50.12511" lon="2.78097">
        <ele>117.42</ele>
        <time>2012-04-13T12:40:13Z</time>
      </trkpt>
      <trkpt lat="50.12604" lon="2.78111">
        <ele>119.34</ele>
        <time>2012-04-13T12:40:33Z</time>
      </trkpt>
      <trkpt lat="50.12655" lon="2.7812">
        <ele>120.3</ele>
        <time>2012-04-13T12:40:44Z</time>
      </trkpt>
      <trkpt lat="50.12707" lon="2.78129">
        <ele>121.26</ele>
        <time>2012-04-13T12:40:57Z</time>
      </trkpt>
      <trkpt lat="50.12711" lon="2.78128">
        <ele>121.26</ele>
        <time>2012-04-13T12:40:59Z</time>
      </trkpt>
      <trkpt lat="50.12725" lon="2.78135">
        <ele>121.74</ele>
        <time>2012-04-13T12:41:05Z</time>
      </trkpt>
      <trkpt lat="50.12783" lon="2.78142">
        <ele>122.71</ele>
        <time>2012-04-13T12:41:20Z</time>
      </trkpt>
      <trkpt lat="50.12829" lon="2.78157">
        <ele>123.67</ele>
        <time>2012-04-13T12:41:34Z</time>
      </trkpt>
      <trkpt lat="50.12869" lon="2.78188">
        <ele>124.15</ele>
        <time>2012-04-13T12:41:47Z</time>
      </trkpt>
      <trkpt lat="50.12876" lon="2.78196">
        <ele>124.15</ele>
        <time>2012-04-13T12:41:49Z</time>
      </trkpt>
      <trkpt lat="50.12938" lon="2.78261">
        <ele>124.15</ele>
        <time>2012-04-13T12:42:07Z</time>
      </trkpt>
      <trkpt lat="50.12979" lon="2.78292">
        <ele>123.19</ele>
        <time>2012-04-13T12:42:21Z</time>
      </trkpt>
      <trkpt lat="50.1298" lon="2.78286">
        <ele>122.22</ele>
        <time>2012-04-13T12:42:33Z</time>
      </trkpt>
      <trkpt lat="50.12979" lon="2.7828">
        <ele>122.22</ele>
        <time>2012-04-13T12:42:47Z</time>
      </trkpt>
      <trkpt lat="50.12979" lon="2.78279">
        <ele>122.22</ele>
        <time>2012-04-13T12:43:07Z</time>
      </trkpt>
      <trkpt lat="50.12979" lon="2.78279">
        <ele>122.22</ele>
        <time>2012-04-13T12:43:36Z</time>
      </trkpt>
    </trkseg>
  </trk>
</gpx>